»·PEaware :: N275ND KBUR-KLAS

N275ND :: KBUR-KLAS

FLIGHT INFORMATION

Flight Status: Arrived
Operator: Privately registered:
United States
More flights under this callsign
Pilot: John A. (19135)
Aircraft: CESSNA 172 SKYHAWK
(C172)
More flights by this aircraft type
Origin: KBUR Bob Hope-Burbank
United States
Destination: KLAS McCarran Intl
United States
More flights between these airports :: More routes between these airports
Route: VNY3 DAG CRESO4
File this flight plan on PilotEdge
Remarks: I-5 Rating
Altitude:
(Current/Filed)
11,000ft
Speed:
(Current/Filed)
125kts
Departed: 12-Aug-19 07:37 AM
Arrived: 12-Aug-19 09:40 AM
Distance/Time
Traveled:
194nm/2:03
Distance/Time
To Go:
Arrived

Flight Plot

Page will automatically refresh every two minutes.

Flight plan parsing failed; only flown route is shown


Map Options




Map Legend


Flown Route
Filed Route
Departure Airport
Arrival Airport
Navaid (VOR, NDB)
Fix

Horizontal Profiles

Position Reports

Time Latitude Longitude Heading Altitude Ground
Speed
12-Aug-19 07:11 34.196402 -118.367316 1 722ft 0kts
12-Aug-19 07:12 34.196402 -118.367316 1 722ft 0kts
12-Aug-19 07:13 34.196402 -118.367316 1 722ft 0kts
12-Aug-19 07:14 34.196402 -118.367316 1 722ft 0kts
12-Aug-19 07:15 34.196402 -118.367316 1 722ft 0kts
12-Aug-19 07:16 34.196402 -118.367316 1 722ft 0kts
12-Aug-19 07:17 34.196402 -118.367316 1 722ft 0kts
12-Aug-19 07:18 34.196402 -118.367316 1 722ft 0kts
12-Aug-19 07:19 34.196402 -118.367316 1 722ft 0kts
12-Aug-19 07:20 34.196402 -118.367316 1 722ft 0kts
12-Aug-19 07:21 34.196402 -118.367316 1 722ft 0kts
12-Aug-19 07:22 34.196402 -118.367316 1 722ft 0kts
12-Aug-19 07:23 34.196402 -118.367316 1 722ft 0kts
12-Aug-19 07:24 34.196402 -118.367316 1 722ft 0kts
12-Aug-19 07:25 34.196402 -118.367316 1 722ft 0kts
12-Aug-19 07:26 34.196402 -118.367316 1 722ft 0kts
12-Aug-19 07:27 34.196402 -118.367316 1 722ft 0kts
12-Aug-19 07:28 34.196402 -118.367316 1 722ft 0kts
12-Aug-19 07:29 34.196402 -118.367316 1 722ft 0kts
12-Aug-19 07:30 34.196402 -118.367316 1 722ft 0kts
12-Aug-19 07:31 34.196402 -118.367316 1 722ft 0kts
12-Aug-19 07:32 34.196402 -118.367316 1 722ft 0kts
12-Aug-19 07:33 34.196930 -118.367687 269 723ft 17kts
12-Aug-19 07:34 34.197020 -118.368836 314 723ft 0kts
12-Aug-19 07:35 34.197911 -118.368724 85 725ft 0kts
12-Aug-19 07:36 34.197807 -118.360670 90 750ft 76kts
12-Aug-19 07:37 34.189063 -118.344032 228 1488ft 88kts
12-Aug-19 07:38 34.171542 -118.366632 225 2357ft 87kts
12-Aug-19 07:39 34.153934 -118.390613 265 3202ft 85kts
12-Aug-19 07:40 34.172055 -118.409229 317 3897ft 87kts
12-Aug-19 07:41 34.191987 -118.426492 355 4535ft 92kts
12-Aug-19 07:42 34.217076 -118.429768 351 5180ft 90kts
12-Aug-19 07:43 34.242007 -118.434725 350 5849ft 90kts
12-Aug-19 07:44 34.266288 -118.444338 340 6494ft 91kts
12-Aug-19 07:45 34.274045 -118.447201 345 6687ft 92kts
12-Aug-19 07:46 34.291809 -118.428499 58 7258ft 92kts
12-Aug-19 07:47 34.304356 -118.411556 38 7640ft 94kts
12-Aug-19 07:48 34.315485 -118.399628 42 7964ft 92kts
12-Aug-19 07:49 34.336533 -118.377896 38 8479ft 95kts
12-Aug-19 07:50 34.357739 -118.355931 39 8970ft 96kts
12-Aug-19 07:51 34.378727 -118.334935 41 9418ft 96kts
12-Aug-19 07:52 34.398642 -118.311957 43 9832ft 97kts
12-Aug-19 07:53 34.420301 -118.290592 52 10230ft 98kts
12-Aug-19 07:54 34.440219 -118.267495 41 10606ft 97kts
12-Aug-19 07:55 34.461667 -118.245223 41 10875ft 106kts
12-Aug-19 07:56 34.486564 -118.220098 42 10965ft 117kts
12-Aug-19 07:57 34.496328 -118.209086 42 11027ft 117kts
12-Aug-19 07:58 34.496328 -118.209086 42 11027ft 117kts
12-Aug-19 07:59 34.505357 -118.198865 42 11088ft 116kts
12-Aug-19 08:00 34.533261 -118.168994 43 10833ft 126kts
12-Aug-19 08:01 34.560327 -118.141422 41 10884ft 123kts
12-Aug-19 08:02 34.586793 -118.114941 35 10966ft 121kts
12-Aug-19 08:03 34.591096 -118.111198 35 10979ft 121kts
12-Aug-19 08:04 34.610539 -118.093297 34 10952ft 126kts
12-Aug-19 08:05 34.635561 -118.065717 63 11000ft 121kts
12-Aug-19 08:06 34.648801 -118.026994 67 10947ft 126kts
12-Aug-19 08:07 34.649547 -117.984388 92 10872ft 128kts
12-Aug-19 08:08 34.647774 -117.941798 87 10852ft 127kts
12-Aug-19 08:09 34.653243 -117.899657 81 10853ft 124kts
12-Aug-19 08:10 34.657785 -117.858641 80 10887ft 125kts
12-Aug-19 08:11 34.662134 -117.816588 81 10872ft 125kts
12-Aug-19 08:12 34.668134 -117.774546 77 10825ft 126kts
12-Aug-19 08:13 34.677200 -117.733689 79 10860ft 122kts
12-Aug-19 08:14 34.683118 -117.692256 75 10850ft 124kts
12-Aug-19 08:15 34.692489 -117.651656 73 10848ft 125kts
12-Aug-19 08:16 34.700249 -117.610599 78 10857ft 124kts
12-Aug-19 08:17 34.707250 -117.569314 72 10864ft 124kts
12-Aug-19 08:18 34.717482 -117.529005 73 10868ft 124kts
12-Aug-19 08:19 34.725693 -117.488061 73 10873ft 124kts
12-Aug-19 08:20 34.736670 -117.448192 70 10879ft 124kts
12-Aug-19 08:21 34.742792 -117.423762 71 10883ft 124kts
12-Aug-19 08:22 34.753524 -117.383731 71 10891ft 124kts
12-Aug-19 08:23 34.762016 -117.342821 71 10898ft 124kts
12-Aug-19 08:24 34.772686 -117.302756 69 10901ft 124kts
12-Aug-19 08:25 34.782449 -117.262335 75 10897ft 125kts
12-Aug-19 08:26 34.791953 -117.221726 75 10913ft 124kts
12-Aug-19 08:27 34.801648 -117.181311 73 10922ft 124kts
12-Aug-19 08:28 34.814652 -117.142338 67 10923ft 125kts
12-Aug-19 08:29 34.822600 -117.116231 70 10936ft 124kts
12-Aug-19 08:30 34.832093 -117.075654 76 10934ft 124kts
12-Aug-19 08:31 34.843370 -117.035724 66 10940ft 124kts
12-Aug-19 08:32 34.854140 -116.995801 80 10951ft 124kts
12-Aug-19 08:33 34.861638 -116.954699 77 10954ft 125kts
12-Aug-19 08:34 34.866591 -116.928687 74 10961ft 124kts
12-Aug-19 08:35 34.871144 -116.907652 74 10967ft 124kts
12-Aug-19 08:36 34.881772 -116.867385 73 10977ft 124kts
12-Aug-19 08:37 34.892309 -116.826908 72 10963ft 124kts
12-Aug-19 08:38 34.901996 -116.786020 75 10927ft 126kts
12-Aug-19 08:39 34.911221 -116.744803 66 10921ft 124kts
12-Aug-19 08:40 34.923874 -116.705213 75 10895ft 125kts
12-Aug-19 08:41 34.933437 -116.664285 74 10880ft 126kts
12-Aug-19 08:42 34.942317 -116.622953 71 10865ft 126kts
12-Aug-19 08:43 34.952039 -116.582135 66 10852ft 126kts
12-Aug-19 08:44 34.968640 -116.544618 62 10845ft 125kts
12-Aug-19 08:45 34.982884 -116.505760 62 10834ft 125kts
12-Aug-19 08:46 35.000278 -116.469519 61 10913ft 121kts
12-Aug-19 08:47 35.013942 -116.432003 69 10997ft 120kts
12-Aug-19 08:48 35.015292 -116.427493 69 11009ft 120kts
12-Aug-19 08:49 35.025137 -116.404682 53 11053ft 120kts
12-Aug-19 08:50 35.043397 -116.367622 58 10894ft 128kts
12-Aug-19 08:51 35.061957 -116.330640 65 10838ft 128kts
12-Aug-19 08:52 35.079545 -116.294232 61 10885ft 124kts
12-Aug-19 08:53 35.097053 -116.258272 57 10934ft 123kts
12-Aug-19 08:54 35.114770 -116.222290 60 10955ft 124kts
12-Aug-19 08:55 35.130063 -116.183830 68 10920ft 126kts
12-Aug-19 08:56 35.147285 -116.146494 60 10900ft 126kts
12-Aug-19 08:57 35.165033 -116.109650 61 10887ft 126kts
12-Aug-19 08:58 35.182316 -116.072532 59 10876ft 126kts
12-Aug-19 08:59 35.199280 -116.035085 60 10863ft 125kts
12-Aug-19 09:00 35.215630 -115.997220 59 10854ft 126kts
12-Aug-19 09:01 35.231716 -115.959632 61 10865ft 125kts
12-Aug-19 09:03 35.249402 -115.922913 60 10892ft 123kts
12-Aug-19 09:04 35.264893 -115.885194 60 10913ft 123kts
12-Aug-19 09:05 35.281037 -115.847872 60 10933ft 124kts
12-Aug-19 09:06 35.297338 -115.810767 60 10959ft 124kts
12-Aug-19 09:07 35.317012 -115.776276 47 10984ft 123kts
12-Aug-19 09:08 35.340631 -115.744622 45 10820ft 130kts
12-Aug-19 09:09 35.364431 -115.711970 46 10520ft 127kts
12-Aug-19 09:10 35.387028 -115.679189 47 10292ft 124kts
12-Aug-19 09:11 35.410331 -115.648773 45 10160ft 119kts
12-Aug-19 09:12 35.432444 -115.619141 42 10185ft 120kts
12-Aug-19 09:13 35.456290 -115.589642 47 10257ft 123kts
12-Aug-19 09:14 35.479105 -115.557352 46 10213ft 129kts
12-Aug-19 09:15 35.503684 -115.523825 44 10014ft 135kts
12-Aug-19 09:16 35.528600 -115.490502 45 9994ft 126kts
12-Aug-19 09:17 35.553805 -115.459020 49 9884ft 130kts
12-Aug-19 09:18 35.573690 -115.430821 49 9841ft 130kts
12-Aug-19 09:19 35.591626 -115.405162 46 9718ft 131kts
12-Aug-19 09:20 35.615387 -115.371738 47 8948ft 128kts
12-Aug-19 09:21 35.639108 -115.341193 49 8148ft 123kts
12-Aug-19 09:22 35.661404 -115.310796 46 7934ft 119kts
12-Aug-19 09:23 35.683743 -115.280653 46 7917ft 118kts
12-Aug-19 09:24 35.705216 -115.250002 52 7891ft 118kts
12-Aug-19 09:25 35.727428 -115.221281 9 7871ft 115kts
12-Aug-19 09:25 35.754019 -115.214757 10 7922ft 118kts
12-Aug-19 09:27 35.791842 -115.203927 14 7917ft 123kts
12-Aug-19 09:28 35.824161 -115.191417 17 7951ft 121kts
12-Aug-19 09:28 35.851409 -115.182737 15 7961ft 121kts
12-Aug-19 09:30 35.889309 -115.169780 15 7979ft 121kts
12-Aug-19 09:30 35.916539 -115.159176 13 7981ft 122kts
12-Aug-19 09:31 35.951628 -115.149632 14 7902ft 125kts
12-Aug-19 09:32 35.987841 -115.135552 12 7797ft 126kts
12-Aug-19 09:33 36.024140 -115.125012 11 7359ft 127kts
12-Aug-19 09:34 36.058229 -115.111279 23 6406ft 133kts
12-Aug-19 09:35 36.090801 -115.100304 12 5749ft 97kts
12-Aug-19 09:36 36.114695 -115.109581 298 4681ft 80kts
12-Aug-19 09:37 36.122231 -115.133253 265 3384ft 75kts
12-Aug-19 09:38 36.108893 -115.151029 208 2387ft 76kts
12-Aug-19 09:39 36.094532 -115.159419 200 2100ft 11kts
12-Aug-19 09:40 36.094323 -115.162394 254 2111ft 4kts
12-Aug-19 09:41 36.094078 -115.162558 119 2112ft 0kts

Navigation Log

Ident Type
Flight plan parsing failed, navigation log unavailable